sensor_id;sensor_type;location;lat;lon;timestamp;temperature;humidity
431;DHT22;202;48.764;9.172;2022-12-29T00:01:13;10.40;47.20
431;DHT22;202;48.764;9.172;2022-12-29T00:03:53;10.40;47.40
431;DHT22;202;48.764;9.172;2022-12-29T00:06:23;10.40;47.20
431;DHT22;202;48.764;9.172;2022-12-29T00:08:50;10.40;47.50
431;DHT22;202;48.764;9.172;2022-12-29T00:45:00;10.90;45.90
431;DHT22;202;48.764;9.172;2022-12-29T00:47:31;10.90;45.70
431;DHT22;202;48.764;9.172;2022-12-29T00:50:08;11.00;45.60
431;DHT22;202;48.764;9.172;2022-12-29T00:52:35;11.00;46.10
431;DHT22;202;48.764;9.172;2022-12-29T00:55:08;10.90;45.50
431;DHT22;202;48.764;9.172;2022-12-29T01:33:36;10.90;46.20
431;DHT22;202;48.764;9.172;2022-12-29T01:36:29;10.80;46.70
431;DHT22;202;48.764;9.172;2022-12-29T06:18:41;12.20;45.60
431;DHT22;202;48.764;9.172;2022-12-29T06:21:09;12.20;45.60
431;DHT22;202;48.764;9.172;2022-12-29T06:23:43;12.20;45.60
431;DHT22;202;48.764;9.172;2022-12-29T06:26:17;12.30;45.70
431;DHT22;202;48.764;9.172;2022-12-29T06:28:44;12.30;45.70
431;DHT22;202;48.764;9.172;2022-12-29T06:31:25;12.30;45.70
431;DHT22;202;48.764;9.172;2022-12-29T06:34:10;12.20;45.60
431;DHT22;202;48.764;9.172;2022-12-29T06:36:46;12.20;45.60
431;DHT22;202;48.764;9.172;2022-12-29T06:39:49;12.30;45.70
431;DHT22;202;48.764;9.172;2022-12-29T06:42:17;12.30;45.70
431;DHT22;202;48.764;9.172;2022-12-29T12:15:41;13.90;48.70
431;DHT22;202;48.764;9.172;2022-12-29T12:18:40;13.80;49.30
431;DHT22;202;48.764;9.172;2022-12-29T14:53:46;13.40;52.90
431;DHT22;202;48.764;9.172;2022-12-29T14:56:16;13.30;52.60
431;DHT22;202;48.764;9.172;2022-12-29T14:58:47;13.40;52.70
431;DHT22;202;48.764;9.172;2022-12-29T16:01:39;13.40;50.50
431;DHT22;202;48.764;9.172;2022-12-29T16:14:20;13.00;55.10
431;DHT22;202;48.764;9.172;2022-12-29T16:16:49;12.80;55.80
431;DHT22;202;48.764;9.172;2022-12-29T16:19:21;12.80;56.30
431;DHT22;202;48.764;9.172;2022-12-29T16:22:03;12.70;56.90
431;DHT22;202;48.764;9.172;2022-12-29T16:24:37;12.60;57.10
431;DHT22;202;48.764;9.172;2022-12-29T16:27:13;12.50;57.90
431;DHT22;202;48.764;9.172;2022-12-29T16:29:42;12.50;58.30
431;DHT22;202;48.764;9.172;2022-12-29T16:32:28;12.50;59.40
431;DHT22;202;48.764;9.172;2022-12-29T16:35:09;12.50;58.60
431;DHT22;202;48.764;9.172;2022-12-29T16:37:37;12.50;58.80
431;DHT22;202;48.764;9.172;2022-12-29T16:40:25;12.50;58.60
431;DHT22;202;48.764;9.172;2022-12-29T16:42:55;12.50;58.50
431;DHT22;202;48.764;9.172;2022-12-29T16:55:14;12.30;60.00
431;DHT22;202;48.764;9.172;2022-12-29T16:57:55;12.30;61.00
431;DHT22;202;48.764;9.172;2022-12-29T17:00:37;12.30;61.40
431;DHT22;202;48.764;9.172;2022-12-29T17:03:57;12.20;62.10
431;DHT22;202;48.764;9.172;2022-12-29T17:06:26;12.30;62.90
431;DHT22;202;48.764;9.172;2022-12-29T19:11:52;11.50;69.10
431;DHT22;202;48.764;9.172;2022-12-29T19:14:55;11.40;69.00
431;DHT22;202;48.764;9.172;2022-12-29T19:17:36;11.40;68.60
431;DHT22;202;48.764;9.172;2022-12-29T19:20:24;11.40;67.20
431;DHT22;202;48.764;9.172;2022-12-29T19:23:43;11.40;68.00
431;DHT22;202;48.764;9.172;2022-12-29T20:55:08;10.60;68.50
431;DHT22;202;48.764;9.172;2022-12-29T21:00:48;10.50;70.80
431;DHT22;202;48.764;9.172;2022-12-29T21:11:23;10.60;70.50
431;DHT22;202;48.764;9.172;2022-12-29T21:13:57;10.50;69.70
431;DHT22;202;48.764;9.172;2022-12-29T21:16:34;10.60;69.40
431;DHT22;202;48.764;9.172;2022-12-29T21:19:25;10.40;71.50
431;DHT22;202;48.764;9.172;2022-12-29T21:22:14;10.40;71.10
431;DHT22;202;48.764;9.172;2022-12-29T21:24:59;10.40;71.90
431;DHT22;202;48.764;9.172;2022-12-29T21:31:31;10.40;72.10
431;DHT22;202;48.764;9.172;2022-12-29T21:36:43;10.40;71.40
431;DHT22;202;48.764;9.172;2022-12-29T21:39:10;10.30;71.60
431;DHT22;202;48.764;9.172;2022-12-29T22:27:13;9.80;66.10
431;DHT22;202;48.764;9.172;2022-12-29T22:29:40;9.90;66.80
431;DHT22;202;48.764;9.172;2022-12-29T23:07:07;10.00;65.90
431;DHT22;202;48.764;9.172;2022-12-29T23:09:44;10.00;65.60
431;DHT22;202;48.764;9.172;2022-12-29T23:18:35;9.60;68.30
431;DHT22;202;48.764;9.172;2022-12-29T23:21:08;9.50;69.00
431;DHT22;202;48.764;9.172;2022-12-29T23:23:44;9.40;70.80
431;DHT22;202;48.764;9.172;2022-12-29T23:26:24;9.40;70.70
431;DHT22;202;48.764;9.172;2022-12-29T23:28:54;9.60;69.60
431;DHT22;202;48.764;9.172;2022-12-29T23:31:24;9.50;69.00
431;DHT22;202;48.764;9.172;2022-12-29T23:34:03;9.60;69.50
431;DHT22;202;48.764;9.172;2022-12-29T23:36:33;9.50;71.30
431;DHT22;202;48.764;9.172;2022-12-29T23:39:16;9.40;72.20
431;DHT22;202;48.764;9.172;2022-12-29T23:41:46;9.40;70.90
431;DHT22;202;48.764;9.172;2022-12-29T23:44:17;9.50;70.10
431;DHT22;202;48.764;9.172;2022-12-29T23:46:46;9.60;69.40
431;DHT22;202;48.764;9.172;2022-12-29T23:49:19;9.50;69.30
431;DHT22;202;48.764;9.172;2022-12-29T23:52:00;9.40;70.90
431;DHT22;202;48.764;9.172;2022-12-29T23:54:33;9.30;72.80
431;DHT22;202;48.764;9.172;2022-12-29T23:57:05;9.40;71.00
431;DHT22;202;48.764;9.172;2022-12-29T23:59:48;9.30;71.40
